»·PEaware :: EJA220 KHCR-KSNA

EJA220 :: KHCR-KSNA

FLIGHT INFORMATION

Flight Status: Arrived
Operator:
Netjets Aviation
More flights by this operator :: More flights under this callsign
Pilot: Ethan S. (29221)
Aircraft: CANADAIR CL-600 CHALLENGER
(CL60)
More flights by this aircraft type
Origin: KHCR Heber Valley
United States
Destination: KSNA John Wayne-Orange Co
United States
More flights between these airports :: More routes between these airports
Route: NONTY MLF J107 BLD NATEE DSNEE5
File this flight plan on PilotEdge
Remarks:
Altitude:
(Current/Filed)
38,000ft
Speed:
(Current/Filed)
465kts
Departed: 15-Nov-23 12:49 PM
Arrived: 15-Nov-23 02:31 PM
Distance/Time
Traveled:
511nm/1:41
Distance/Time
To Go:
Arrived

Flight Plot

Page will automatically refresh every two minutes.

Flight plan parsing failed; only flown route is shown


Map Options




Map Legend


Flown Route
Filed Route
Departure Airport
Arrival Airport
Navaid (VOR, NDB)
Fix

Horizontal Profiles

Position Reports

Time Latitude Longitude Heading Altitude Ground
Speed
15-Nov-23 12:22 40.483144 -111.424326 229 5627ft 0kts
15-Nov-23 12:23 40.483144 -111.424326 229 5627ft 0kts
15-Nov-23 12:24 40.483144 -111.424326 229 5627ft 0kts
15-Nov-23 12:25 40.483144 -111.424326 229 5627ft 0kts
15-Nov-23 12:26 40.483144 -111.424326 229 5627ft 0kts
15-Nov-23 12:27 40.483144 -111.424326 229 5627ft 0kts
15-Nov-23 12:28 40.483144 -111.424326 229 5627ft 0kts
15-Nov-23 12:29 40.483144 -111.424326 229 5627ft 0kts
15-Nov-23 12:30 40.483144 -111.424326 229 5627ft 0kts
15-Nov-23 12:31 40.483144 -111.424326 229 5627ft 0kts
15-Nov-23 12:32 40.483144 -111.424326 229 5627ft 0kts
15-Nov-23 12:33 40.483144 -111.424326 229 5627ft 0kts
15-Nov-23 12:34 40.483144 -111.424326 229 5627ft 0kts
15-Nov-23 12:35 40.483144 -111.424326 229 5627ft 0kts
15-Nov-23 12:36 40.483144 -111.424326 229 5627ft 0kts
15-Nov-23 12:37 40.483144 -111.424326 229 5627ft 0kts
15-Nov-23 12:38 40.483144 -111.424326 229 5627ft 0kts
15-Nov-23 12:39 40.483144 -111.424326 229 5627ft 0kts
15-Nov-23 12:40 40.483144 -111.424326 229 5627ft 0kts
15-Nov-23 12:41 40.483144 -111.424326 229 5627ft 0kts
15-Nov-23 12:42 40.483144 -111.424326 229 5627ft 0kts
15-Nov-23 12:43 40.483144 -111.424326 229 5627ft 0kts
15-Nov-23 12:44 40.483143 -111.424326 229 5627ft 0kts
15-Nov-23 12:45 40.483828 -111.424330 50 5627ft 8kts
15-Nov-23 12:46 40.485633 -111.421533 50 5632ft 10kts
15-Nov-23 12:47 40.487147 -111.419102 52 5636ft 6kts
15-Nov-23 12:48 40.481073 -111.429947 229 5621ft 154kts
15-Nov-23 12:49 40.442690 -111.478748 180 8294ft 226kts
15-Nov-23 12:51 40.383646 -111.430232 146 12417ft 275kts
15-Nov-23 12:52 40.315417 -111.383897 185 16241ft 287kts
15-Nov-23 12:53 40.229424 -111.395128 209 18780ft 331kts
15-Nov-23 12:54 40.151451 -111.462789 217 21858ft 346kts
15-Nov-23 12:55 40.069948 -111.535433 217 24594ft 362kts
15-Nov-23 12:56 39.985493 -111.610495 217 27073ft 373kts
15-Nov-23 12:57 39.898206 -111.687854 218 29125ft 384kts
15-Nov-23 12:58 39.809039 -111.766633 218 31019ft 390kts
15-Nov-23 12:59 39.721895 -111.843216 220 33698ft 365kts
15-Nov-23 13:00 39.639371 -111.915628 221 35382ft 358kts
15-Nov-23 13:01 39.557946 -111.987018 220 36920ft 348kts
15-Nov-23 13:02 39.477779 -112.057147 220 37637ft 353kts
15-Nov-23 13:03 39.394058 -112.130047 220 37622ft 370kts
15-Nov-23 13:04 39.307050 -112.205574 220 37633ft 382kts
15-Nov-23 13:05 39.218237 -112.282528 219 37618ft 384kts
15-Nov-23 13:06 39.129568 -112.358903 220 37619ft 381kts
15-Nov-23 13:07 39.041517 -112.434649 219 37629ft 380kts
15-Nov-23 13:08 38.953568 -112.510054 218 37539ft 380kts
15-Nov-23 13:09 38.865734 -112.585067 219 37537ft 379kts
15-Nov-23 13:10 38.777824 -112.660051 218 37598ft 378kts
15-Nov-23 13:11 38.689926 -112.734705 218 37593ft 380kts
15-Nov-23 13:12 38.601417 -112.809709 218 37567ft 380kts
15-Nov-23 13:13 38.513132 -112.884323 217 37526ft 381kts
15-Nov-23 13:14 38.424365 -112.959030 218 37520ft 380kts
15-Nov-23 13:15 38.335712 -113.032948 217 37521ft 381kts
15-Nov-23 13:16 38.246033 -113.105936 216 37543ft 381kts
15-Nov-23 13:16 38.171208 -113.166563 217 37541ft 382kts
15-Nov-23 13:18 38.066384 -113.251330 218 37523ft 382kts
15-Nov-23 13:19 37.976256 -113.324001 217 37589ft 382kts
15-Nov-23 13:20 37.888717 -113.394363 216 37571ft 383kts
15-Nov-23 13:21 37.809523 -113.457537 216 37545ft 380kts
15-Nov-23 13:21 37.734593 -113.517236 216 37556ft 383kts
15-Nov-23 13:22 37.644041 -113.589127 216 37536ft 383kts
15-Nov-23 13:24 37.539726 -113.671687 215 37612ft 384kts
15-Nov-23 13:24 37.464041 -113.731479 215 37615ft 384kts
15-Nov-23 13:26 37.358079 -113.814818 215 37656ft 385kts
15-Nov-23 13:27 37.267159 -113.886109 215 37646ft 385kts
15-Nov-23 13:27 37.191300 -113.945485 215 37641ft 385kts
15-Nov-23 13:28 37.100431 -114.016333 215 37616ft 384kts
15-Nov-23 13:29 37.009667 -114.086976 215 37596ft 383kts
15-Nov-23 13:30 36.918761 -114.157495 214 37608ft 385kts
15-Nov-23 13:31 36.828072 -114.227675 215 37604ft 385kts
15-Nov-23 13:33 36.722009 -114.309141 214 37613ft 382kts
15-Nov-23 13:33 36.646277 -114.366784 214 37648ft 383kts
15-Nov-23 13:34 36.555458 -114.435647 214 37645ft 381kts
15-Nov-23 13:35 36.465053 -114.504037 215 37636ft 379kts
15-Nov-23 13:36 36.375314 -114.573112 215 37641ft 378kts
15-Nov-23 13:37 36.285966 -114.641636 216 37647ft 378kts
15-Nov-23 13:38 36.197666 -114.709326 214 37676ft 376kts
15-Nov-23 13:40 36.093747 -114.788633 215 37656ft 375kts
15-Nov-23 13:40 36.019840 -114.845589 216 37641ft 374kts
15-Nov-23 13:41 35.943970 -114.932483 227 37680ft 372kts
15-Nov-23 13:42 35.875639 -115.026644 226 37702ft 371kts
15-Nov-23 13:43 35.806326 -115.121382 226 37693ft 370kts
15-Nov-23 13:44 35.737142 -115.215545 226 37691ft 369kts
15-Nov-23 13:45 35.667820 -115.309397 227 37693ft 368kts
15-Nov-23 13:46 35.598804 -115.402757 227 37647ft 368kts
15-Nov-23 13:47 35.529707 -115.495853 226 37646ft 367kts
15-Nov-23 13:48 35.460848 -115.588394 226 37645ft 367kts
15-Nov-23 13:49 35.391853 -115.680849 225 37670ft 367kts
15-Nov-23 13:50 35.322508 -115.773351 225 37642ft 366kts
15-Nov-23 13:51 35.253781 -115.864952 225 37617ft 365kts
15-Nov-23 13:52 35.183998 -115.955080 225 37593ft 363kts
15-Nov-23 13:53 35.115521 -116.041477 224 36476ft 336kts
15-Nov-23 13:54 35.051449 -116.122018 225 35016ft 332kts
15-Nov-23 13:55 34.985696 -116.204421 225 33471ft 344kts
15-Nov-23 13:56 34.918023 -116.289095 225 31617ft 353kts
15-Nov-23 13:57 34.849137 -116.376177 225 29789ft 358kts
15-Nov-23 13:58 34.790729 -116.450662 225 28196ft 350kts
15-Nov-23 13:59 34.724101 -116.535320 225 26405ft 340kts
15-Nov-23 14:00 34.655616 -116.611901 219 24687ft 331kts
15-Nov-23 14:01 34.584847 -116.680734 218 22924ft 323kts
15-Nov-23 14:02 34.515634 -116.748284 218 21154ft 316kts
15-Nov-23 14:03 34.451681 -116.820209 222 19414ft 311kts
15-Nov-23 14:04 34.389690 -116.892330 221 17706ft 306kts
15-Nov-23 14:05 34.328772 -116.962798 222 16052ft 300kts
15-Nov-23 14:06 34.268553 -117.031997 221 14388ft 295kts
15-Nov-23 14:07 34.198797 -117.083259 211 13585ft 293kts
15-Nov-23 14:08 34.126014 -117.127018 204 13370ft 292kts
15-Nov-23 14:09 34.051313 -117.166714 204 13341ft 291kts
15-Nov-23 14:10 33.983378 -117.214717 225 12010ft 276kts
15-Nov-23 14:11 33.933955 -117.283559 226 10891ft 262kts
15-Nov-23 14:12 33.888165 -117.347949 226 9728ft 249kts
15-Nov-23 14:13 33.833783 -117.395446 211 8739ft 251kts
15-Nov-23 14:14 33.774758 -117.442182 211 8184ft 256kts
15-Nov-23 14:15 33.715555 -117.489216 211 8158ft 254kts
15-Nov-23 14:16 33.656545 -117.535852 211 8141ft 252kts
15-Nov-23 14:17 33.597648 -117.582640 210 8161ft 252kts
15-Nov-23 14:18 33.543416 -117.625482 211 7619ft 226kts
15-Nov-23 14:19 33.489147 -117.669233 210 5774ft 241kts
15-Nov-23 14:20 33.452761 -117.735886 251 4304ft 250kts
15-Nov-23 14:21 33.432247 -117.812628 251 3302ft 235kts
15-Nov-23 14:22 33.429014 -117.880399 312 3101ft 209kts
15-Nov-23 14:23 33.466250 -117.928664 314 3074ft 170kts
15-Nov-23 14:24 33.498450 -117.969332 322 3062ft 168kts
15-Nov-23 14:25 33.539114 -117.955457 29 2926ft 160kts
15-Nov-23 14:26 33.573510 -117.933519 28 2201ft 132kts
15-Nov-23 14:27 33.605921 -117.913018 28 1492ft 131kts
15-Nov-23 14:28 33.637964 -117.892751 28 797ft 129kts
15-Nov-23 14:29 33.669754 -117.872615 28 89ft 128kts
15-Nov-23 14:30 33.677306 -117.866584 118 53ft 0kts
15-Nov-23 14:31 33.676365 -117.865108 178 52ft 10kts
15-Nov-23 14:32 33.672970 -117.867452 229 57ft 13kts
15-Nov-23 14:33 33.671850 -117.867101 206 58ft 0kts
15-Nov-23 14:34 33.671850 -117.867101 206 58ft 0kts

Navigation Log

Ident Type
Flight plan parsing failed, navigation log unavailable